Time;durP1;ratioP1;P1;durP2;ratioP2;P2;SDS_P1;SDS_P2;PMS_P1;PMS_P2;Temp;Humidity;BMP_temperature;BMP_pressure;BME280_temperature;BME280_humidity;BME280_pressure;Samples;Min_cycle;Max_cycle;Signal;HPM_P1;HPM_P2
2024/03/08 00:01:50;;;;;;;0.00;0.00;;;;;;;4.71;100.00;99981.06;6230167;23;19993;-77
2024/03/08 00:04:50;;;;;;;0.00;0.00;;;;;;;4.75;100.00;99994.97;6228376;23;20046;-80
2024/03/08 00:07:19;;;;;;;0.00;0.00;;;;;;;4.63;100.00;99987.69;6235330;23;20031;-80
2024/03/08 00:09:47;;;;;;;0.00;0.00;;;;;;;4.63;100.00;100000.38;6231184;23;20008;-76
2024/03/08 00:12:13;;;;;;;0.00;0.00;;;;;;;4.47;100.00;99974.88;6226743;23;20426;-77
2024/03/08 00:14:39;;;;;;;0.00;0.00;;;;;;;4.56;100.00;99997.81;6224343;23;20031;-77
2024/03/08 00:17:04;;;;;;;0.10;0.10;;;;;;;4.43;100.00;99992.63;6225011;23;20043;-79
2024/03/08 00:19:30;;;;;;;0.10;0.10;;;;;;;4.45;100.00;99993.22;6197819;23;20099;-80
2024/03/08 00:21:55;;;;;;;0.00;0.00;;;;;;;4.35;100.00;99975.69;6200560;23;20114;-79
2024/03/08 00:24:25;;;;;;;0.00;0.00;;;;;;;4.27;100.00;99978.75;6224160;23;19996;-80
2024/03/08 00:26:50;;;;;;;0.08;0.08;;;;;;;4.19;100.00;99984.50;6226894;23;20016;-79
2024/03/08 00:29:16;;;;;;;0.00;0.00;;;;;;;4.11;100.00;99985.66;6222991;23;20039;-73
2024/03/08 00:31:42;;;;;;;0.00;0.00;;;;;;;4.03;100.00;99980.63;6218980;23;20008;-74
2024/03/08 00:34:10;;;;;;;0.00;0.00;;;;;;;3.92;100.00;99968.72;6197941;23;20469;-74
2024/03/08 00:36:35;;;;;;;0.00;0.00;;;;;;;3.85;100.00;99959.88;6223766;23;20040;-78
2024/03/08 00:39:01;;;;;;;0.00;0.00;;;;;;;3.83;100.00;99952.00;6225308;23;20008;-77
2024/03/08 00:41:32;;;;;;;0.03;0.03;;;;;;;3.83;100.00;99956.59;6230597;23;20008;-74
2024/03/08 00:44:07;;;;;;;0.00;0.00;;;;;;;3.75;100.00;99937.97;6194445;23;20056;-74
2024/03/08 00:46:36;;;;;;;0.00;0.00;;;;;;;3.62;100.00;99911.97;6223323;23;20633;-74
2024/03/08 00:49:10;;;;;;;0.00;0.00;;;;;;;3.73;100.00;99919.28;6195137;23;20046;-73
2024/03/08 00:51:46;;;;;;;;;;;;;;;;;;;;;
2024/03/08 00:54:16;;;;;;;0.00;0.00;;;;;;;3.97;100.00;99936.38;6246287;22;20793;-73
2024/03/08 00:56:42;;;;;;;0.00;0.00;;;;;;;3.88;100.00;99918.81;6224406;23;19991;-73
2024/03/08 00:59:07;;;;;;;0.10;0.10;;;;;;;3.88;100.00;99924.25;6219249;23;20011;-73
2024/03/08 01:01:33;;;;;;;0.00;0.00;;;;;;;3.88;100.00;99931.53;6222090;23;20012;-73
2024/03/08 01:03:58;;;;;;;0.00;0.00;;;;;;;3.69;100.00;99904.59;6219808;23;20437;-74
2024/03/08 01:06:26;;;;;;;0.00;0.00;;;;;;;3.63;100.00;99898.22;6222763;23;20498;-74
2024/03/08 01:08:52;;;;;;;0.00;0.00;;;;;;;3.70;100.00;99908.13;6245930;23;20004;-73
2024/03/08 01:11:18;;;;;;;0.00;0.00;;;;;;;3.81;100.00;99926.22;6197433;22;19992;-74
2024/03/08 01:13:47;;;;;;;0.00;0.00;;;;;;;3.80;100.00;99930.00;6221964;23;20012;-73
2024/03/08 01:16:12;;;;;;;0.00;0.00;;;;;;;3.69;100.00;99906.47;6247285;23;20004;-73
2024/03/08 01:18:38;;;;;;;0.00;0.00;;;;;;;3.84;100.00;99914.94;6221855;23;20625;-72
2024/03/08 01:21:04;;;;;;;0.00;0.00;;;;;;;3.68;100.00;99873.22;6244580;23;20008;-74
2024/03/08 01:23:29;;;;;;;0.00;0.00;;;;;;;3.67;100.00;99866.97;6246172;23;20008;-74
2024/03/08 01:26:01;;;;;;;0.00;0.00;;;;;;;3.89;100.00;99896.13;6248185;23;20004;-72
2024/03/08 01:28:29;;;;;;;0.00;0.00;;;;;;;3.78;100.00;99878.84;6249077;23;20008;-73
2024/03/08 01:30:57;;;;;;;0.00;0.00;;;;;;;3.91;100.00;99891.31;6222969;23;20004;-74
2024/03/08 01:33:27;;;;;;;0.00;0.00;;;;;;;3.87;100.00;99876.63;6219403;23;20079;-74
2024/03/08 01:35:56;;;;;;;0.00;0.00;;;;;;;3.80;100.00;99875.91;6221245;23;20011;-72
2024/03/08 01:38:25;;;;;;;0.00;0.00;;;;;;;3.87;100.00;99876.63;6241769;23;20022;-73
2024/03/08 01:40:52;;;;;;;0.00;0.00;;;;;;;3.92;100.00;99868.63;6223934;23;20050;-73
2024/03/08 01:43:18;;;;;;;0.00;0.00;;;;;;;4.05;100.00;99869.44;6223129;23;19996;-73
2024/03/08 01:45:43;;;;;;;0.10;0.10;;;;;;;3.90;100.00;99841.00;6247769;23;20004;-73
2024/03/08 01:48:10;;;;;;;0.00;0.00;;;;;;;3.89;100.00;99830.41;6249337;23;20100;-73
2024/03/08 01:50:36;;;;;;;0.00;0.00;;;;;;;3.99;100.00;99844.97;6221209;23;20008;-72
2024/03/08 01:53:02;;;;;;;0.10;0.10;;;;;;;4.07;100.00;99842.97;6249663;23;20378;-75
2024/03/08 01:55:27;;;;;;;0.10;0.10;;;;;;;3.96;100.00;99823.81;6247445;23;20000;-72
2024/03/08 01:57:58;;;;;;;0.00;0.00;;;;;;;3.85;100.00;99816.50;6221558;23;20485;-73
2024/03/08 02:00:30;;;;;;;0.00;0.00;;;;;;;3.90;100.00;99816.63;6223054;23;20384;-73
2024/03/08 02:02:59;;;;;;;0.00;0.00;;;;;;;3.83;100.00;99805.94;6198894;23;20023;-73
2024/03/08 02:05:27;;;;;;;0.00;0.00;;;;;;;3.85;100.00;99794.88;6221711;23;20066;-73
2024/03/08 02:07:54;;;;;;;0.00;0.00;;;;;;;3.93;100.00;99812.63;6198163;23;20312;-73
2024/03/08 02:10:19;;;;;;;0.10;0.10;;;;;;;3.92;100.00;99825.31;6196710;23;20008;-72
2024/03/08 02:12:46;;;;;;;0.00;0.00;;;;;;;3.78;100.00;99797.72;6247184;23;20031;-73
2024/03/08 02:15:12;;;;;;;0.00;0.00;;;;;;;3.87;100.00;99806.31;6222197;23;20431;-73
2024/03/08 02:17:39;;;;;;;0.00;0.00;;;;;;;3.67;100.00;99791.25;6220048;22;20015;-73
2024/03/08 02:20:05;;;;;;;0.10;0.10;;;;;;;3.62;100.00;99793.00;6197576;23;20016;-73
2024/03/08 02:22:33;;;;;;;0.00;0.00;;;;;;;3.53;100.00;99779.03;6177881;23;20004;-75
2024/03/08 02:25:08;;;;;;;0.00;0.00;;;;;;;3.53;100.00;99781.72;6224318;23;20004;-77
2024/03/08 02:27:34;;;;;;;0.00;0.00;;;;;;;3.70;100.00;99797.25;6225804;23;20023;-77
2024/03/08 02:30:09;;;;;;;;;;;;;;;;;;;;;
2024/03/08 02:32:43;;;;;;;0.03;0.03;;;;;;;3.51;100.00;99783.03;6254500;23;20015;-76
2024/03/08 02:35:09;;;;;;;0.00;0.00;;;;;;;3.59;100.00;99778.09;6224747;23;20010;-76
2024/03/08 02:37:34;;;;;;;0.00;0.00;;;;;;;3.59;100.00;99778.09;6201636;23;20000;-76
2024/03/08 02:40:09;;;;;;;0.00;0.00;;;;;;;3.58;100.00;99765.63;6252256;22;20059;-77
2024/03/08 02:42:34;;;;;;;0.00;0.00;;;;;;;3.45;100.00;99745.06;6225187;23;20000;-77
2024/03/08 02:45:00;;;;;;;0.00;0.00;;;;;;;3.54;100.00;99769.03;6225124;23;20009;-77
2024/03/08 02:47:26;;;;;;;0.00;0.00;;;;;;;3.39;100.00;99734.34;6227504;23;20008;-78
2024/03/08 02:49:54;;;;;;;0.00;0.00;;;;;;;3.29;100.00;99707.94;6233694;23;20068;-77
2024/03/08 02:53:00;;;;;;;0.00;0.00;;;;;;;3.57;100.00;99739.63;6225351;22;20015;-78
2024/03/08 02:55:27;;;;;;;0.00;0.00;;;;;;;3.61;100.00;99746.22;6251662;23;20022;-77
2024/03/08 03:00:41;;;;;;;0.00;0.00;;;;;;;3.41;100.00;99721.44;6239174;23;20055;-73
2024/03/08 03:03:09;;;;;;;0.00;0.00;;;;;;;3.44;100.00;99732.59;6223907;23;20004;-73
2024/03/08 03:05:35;;;;;;;0.00;0.00;;;;;;;3.39;100.00;99723.53;6195604;23;20011;-74
2024/03/08 03:08:03;;;;;;;0.00;0.00;;;;;;;3.26;100.00;99703.00;6222614;23;20445;-74
2024/03/08 03:10:32;;;;;;;0.00;0.00;;;;;;;3.42;100.00;99706.88;6223099;23;20008;-74
2024/03/08 03:12:57;;;;;;;0.00;0.00;;;;;;;3.51;100.00;99710.03;6244131;23;20059;-74
2024/03/08 03:15:23;;;;;;;0.00;0.00;;;;;;;3.53;100.00;99703.31;6224108;23;20016;-74
2024/03/08 03:17:53;;;;;;;0.00;0.00;;;;;;;3.58;100.00;99708.84;6221875;23;20288;-74
2024/03/08 03:20:39;;;;;;;0.00;0.00;;;;;;;3.51;100.00;99689.22;6225062;23;20011;-74
2024/03/08 03:23:09;;;;;;;0.00;0.00;;;;;;;3.43;100.00;99676.91;6222067;23;20011;-74
2024/03/08 03:25:42;;;;;;;0.10;0.10;;;;;;;3.37;100.00;99672.44;6225478;23;20056;-74
2024/03/08 03:28:14;;;;;;;0.00;0.00;;;;;;;3.48;100.00;99689.72;6223218;23;19992;-74
2024/03/08 03:31:01;;;;;;;0.00;0.00;;;;;;;3.46;100.00;99689.94;6252599;23;20015;-77
2024/03/08 03:33:52;;;;;;;0.00;0.00;;;;;;;3.19;100.00;99649.06;6199467;23;20077;-78
2024/03/08 03:36:17;;;;;;;0.00;0.00;;;;;;;3.23;100.00;99644.84;6230186;23;20000;-78
2024/03/08 03:39:05;;;;;;;0.10;0.10;;;;;;;3.45;100.00;99669.38;6223823;23;20011;-79
2024/03/08 03:42:12;;;;;;;;;;;;;;;;;;;;;
2024/03/08 03:44:56;;;;;;;0.00;0.00;;;;;;;3.47;100.00;99650.22;6251909;23;20028;-77
2024/03/08 03:47:21;;;;;;;0.00;0.00;;;;;;;3.56;100.00;99656.88;6222536;23;20007;-77
2024/03/08 03:49:47;;;;;;;0.00;0.00;;;;;;;3.57;100.00;99645.00;6201098;23;19988;-77
2024/03/08 03:52:12;;;;;;;0.00;0.00;;;;;;;3.44;100.00;99607.44;6225430;22;20294;-77
2024/03/08 03:54:38;;;;;;;0.00;0.00;;;;;;;3.76;100.00;99647.56;6225323;23;20037;-77
2024/03/08 03:57:08;;;;;;;0.00;0.00;;;;;;;3.66;100.00;99616.56;6246563;23;20427;-77
2024/03/08 03:59:35;;;;;;;0.00;0.00;;;;;;;3.76;100.00;99625.94;6201006;23;20015;-76
2024/03/08 04:02:09;;;;;;;0.10;0.10;;;;;;;3.75;100.00;99618.88;6200789;23;20004;-77
2024/03/08 04:04:44;;;;;;;0.00;0.00;;;;;;;3.87;100.00;99641.28;6228225;23;20019;-77
2024/03/08 04:07:16;;;;;;;0.00;0.00;;;;;;;3.76;100.00;99631.34;6251479;23;20008;-76
2024/03/08 04:09:42;;;;;;;0.10;0.10;;;;;;;3.54;100.00;99602.25;6199685;23;20063;-76
2024/03/08 04:12:09;;;;;;;0.00;0.00;;;;;;;3.54;100.00;99613.06;6219039;23;20008;-74
2024/03/08 04:14:35;;;;;;;0.00;0.00;;;;;;;3.55;100.00;99625.53;6223251;23;20052;-72
2024/03/08 04:17:01;;;;;;;0.00;0.00;;;;;;;3.62;100.00;99626.22;6223725;23;20008;-77
2024/03/08 04:19:28;;;;;;;0.05;0.05;;;;;;;3.54;100.00;99609.53;6249820;23;20039;-76
2024/03/08 04:21:53;;;;;;;0.00;0.00;;;;;;;3.43;100.00;99600.38;6173970;23;20069;-78
2024/03/08 04:24:19;;;;;;;0.00;0.00;;;;;;;3.26;100.00;99611.13;6222079;23;20031;-78
2024/03/08 04:26:46;;;;;;;0.00;0.00;;;;;;;3.25;100.00;99610.28;6199052;23;20048;-78
2024/03/08 04:29:14;;;;;;;0.00;0.00;;;;;;;3.37;100.00;99614.84;6221496;23;19996;-76
2024/03/08 04:31:42;;;;;;;0.00;0.00;;;;;;;3.29;100.00;99597.94;6226130;23;20066;-78
2024/03/08 04:34:23;;;;;;;0.00;0.00;;;;;;;3.24;100.00;99587.06;6198218;23;20011;-77
2024/03/08 04:37:02;;;;;;;;;;;;;;;;;;;;;
2024/03/08 04:39:54;;;;;;;0.00;0.00;;;;;;;3.12;100.00;99583.53;6224110;22;20023;-77
2024/03/08 04:42:19;;;;;;;0.00;0.00;;;;;;;3.15;100.00;99580.34;6225750;23;20011;-78
2024/03/08 04:44:45;;;;;;;0.00;0.00;;;;;;;3.14;100.00;99570.63;6224169;22;20062;-77
2024/03/08 04:47:13;;;;;;;0.00;0.00;;;;;;;3.34;100.00;99572.91;6224878;23;19992;-79
2024/03/08 04:49:39;;;;;;;0.00;0.00;;;;;;;3.17;100.00;99547.69;6246995;23;20000;-80
2024/03/08 04:52:35;;;;;;;0.00;0.00;;;;;;;3.49;100.00;99588.63;6226110;22;20011;-78
2024/03/08 04:55:29;;;;;;;0.00;0.00;;;;;;;3.45;100.00;99582.06;6243755;23;20040;-78
2024/03/08 04:58:21;;;;;;;0.00;0.00;;;;;;;3.34;100.00;99581.00;6252509;22;20004;-79
2024/03/08 05:00:56;;;;;;;;;;;;;;;;;;;;;
2024/03/08 05:03:26;;;;;;;0.00;0.00;;;;;;;3.15;100.00;99577.66;6251368;23;20030;-78
2024/03/08 05:06:01;;;;;;;0.00;0.00;;;;;;;2.95;100.00;99540.25;6249047;23;20075;-78
2024/03/08 05:08:29;;;;;;;0.00;0.00;;;;;;;3.08;100.00;99564.28;6220764;23;20012;-78
2024/03/08 05:11:03;;;;;;;0.00;0.00;;;;;;;3.13;100.00;99541.97;6220924;23;19995;-78
2024/03/08 05:13:30;;;;;;;0.00;0.00;;;;;;;3.21;100.00;99563.19;6223811;23;19988;-78
2024/03/08 05:15:58;;;;;;;0.00;0.00;;;;;;;2.99;100.00;99524.38;6200246;23;20070;-78
2024/03/08 05:18:24;;;;;;;0.00;0.00;;;;;;;3.17;100.00;99555.78;6199322;23;20110;-79
2024/03/08 05:20:51;;;;;;;0.00;0.00;;;;;;;3.13;100.00;99550.88;6202731;23;20399;-79
2024/03/08 05:23:19;;;;;;;0.00;0.00;;;;;;;2.86;100.00;99525.44;6225977;23;20007;-78
2024/03/08 05:25:46;;;;;;;0.00;0.00;;;;;;;3.02;100.00;99553.59;6223831;23;20015;-79
2024/03/08 05:28:12;;;;;;;0.00;0.00;;;;;;;3.04;100.00;99549.63;6227274;23;20015;-79
2024/03/08 05:30:38;;;;;;;0.00;0.00;;;;;;;3.10;100.00;99539.75;6198496;23;20008;-73
2024/03/08 05:33:10;;;;;;;0.10;0.10;;;;;;;3.07;100.00;99513.19;6222632;23;20046;-73
2024/03/08 05:35:38;;;;;;;0.00;0.00;;;;;;;3.22;100.00;99537.81;6202242;23;20019;-72
2024/03/08 05:38:04;;;;;;;0.00;0.00;;;;;;;3.19;100.00;99524.78;6253996;22;20004;-79
2024/03/08 05:40:32;;;;;;;0.00;0.00;;;;;;;3.19;100.00;99535.59;6196823;23;20012;-78
2024/03/08 05:42:59;;;;;;;0.00;0.00;;;;;;;3.21;100.00;99532.66;6250529;23;19992;-78
2024/03/08 05:45:25;;;;;;;0.00;0.00;;;;;;;3.26;100.00;99543.56;6248706;23;20010;-77
2024/03/08 05:47:53;;;;;;;0.00;0.00;;;;;;;3.21;100.00;99528.06;6248332;23;20008;-78
2024/03/08 05:50:19;;;;;;;0.00;0.00;;;;;;;3.32;100.00;99531.81;6222842;23;20004;-77
2024/03/08 05:52:48;;;;;;;0.00;0.00;;;;;;;3.45;100.00;99542.31;6249876;22;20027;-78
2024/03/08 05:55:16;;;;;;;0.00;0.00;;;;;;;3.32;100.00;99518.28;6248985;23;20050;-77
2024/03/08 05:57:42;;;;;;;0.00;0.00;;;;;;;3.28;100.00;99523.34;6249277;23;20004;-78
2024/03/08 06:00:10;;;;;;;0.00;0.00;;;;;;;3.36;100.00;99532.13;6224545;23;20008;-77
2024/03/08 06:02:40;;;;;;;0.00;0.00;;;;;;;3.39;100.00;99540.59;6227582;23;20012;-76
2024/03/08 06:05:10;;;;;;;0.00;0.00;;;;;;;3.41;100.00;99532.25;6223371;23;20016;-72
2024/03/08 06:07:36;;;;;;;0.00;0.00;;;;;;;3.40;100.00;99536.00;6221610;23;20030;-73
2024/03/08 06:10:02;;;;;;;0.00;0.00;;;;;;;3.42;100.00;99540.09;6194926;23;20039;-73
2024/03/08 06:12:32;;;;;;;0.00;0.00;;;;;;;3.43;100.00;99541.75;6196614;23;20000;-73
2024/03/08 06:14:57;;;;;;;0.10;0.10;;;;;;;3.57;100.00;99553.09;6194557;23;20687;-73
2024/03/08 06:17:25;;;;;;;0.10;0.10;;;;;;;3.54;100.00;99553.59;6221028;23;20477;-73
2024/03/08 06:19:54;;;;;;;0.00;0.00;;;;;;;3.39;100.00;99529.78;6221298;23;20008;-74
2024/03/08 06:22:19;;;;;;;0.00;0.00;;;;;;;3.45;100.00;99534.22;6219632;23;20068;-75
2024/03/08 06:24:45;;;;;;;0.00;0.00;;;;;;;3.40;100.00;99541.41;6221165;23;20854;-73
2024/03/08 06:27:13;;;;;;;0.00;0.00;;;;;;;3.15;100.00;99515.50;6220884;23;19992;-74
2024/03/08 06:29:44;;;;;;;0.00;0.00;;;;;;;3.04;100.00;99514.50;6196416;23;20008;-73
2024/03/08 06:32:10;;;;;;;0.00;0.00;;;;;;;3.02;100.00;99519.31;6194363;23;20091;-76
2024/03/08 06:34:35;;;;;;;0.00;0.00;;;;;;;3.04;100.00;99536.09;6222737;23;20008;-78
2024/03/08 06:37:01;;;;;;;0.00;0.00;;;;;;;2.92;100.00;99546.94;6248834;22;20327;-77
2024/03/08 06:39:55;;;;;;;0.00;0.00;;;;;;;2.73;100.00;99523.81;6249301;22;20004;-78
2024/03/08 06:42:20;;;;;;;0.00;0.00;;;;;;;2.81;100.00;99530.75;6201662;23;20011;-77
2024/03/08 06:44:55;;;;;;;0.00;0.00;;;;;;;2.87;100.00;99533.31;6199792;23;20012;-77
2024/03/08 06:47:21;;;;;;;0.00;0.00;;;;;;;2.84;100.00;99532.97;6197642;23;20024;-78
2024/03/08 06:49:46;;;;;;;0.00;0.00;;;;;;;2.87;100.00;99546.81;6225149;23;20060;-77
2024/03/08 06:55:19;;;;;;;0.00;0.00;;;;;;;2.74;100.00;99549.75;6249504;22;20016;-79
2024/03/08 06:57:47;;;;;;;0.00;0.00;;;;;;;2.65;100.00;99543.09;6224121;23;20307;-79
2024/03/08 07:00:18;;;;;;;0.10;0.10;;;;;;;2.65;100.00;99545.78;6222850;23;20321;-78
2024/03/08 07:02:45;;;;;;;0.00;0.00;;;;;;;2.65;100.00;99545.78;6202167;23;20019;-77
2024/03/08 07:05:17;;;;;;;0.00;0.00;;;;;;;2.48;100.00;99519.47;6221231;23;20008;-73
2024/03/08 07:07:42;;;;;;;0.00;0.00;;;;;;;2.68;100.00;99539.91;6245042;23;20011;-73
2024/03/08 07:10:10;;;;;;;0.00;0.00;;;;;;;2.73;100.00;99534.59;6193625;23;20035;-73
2024/03/08 07:12:40;;;;;;;0.00;0.00;;;;;;;2.82;100.00;99535.91;6245682;23;19988;-75
2024/03/08 07:15:06;;;;;;;0.00;0.00;;;;;;;2.84;100.00;99520.28;6217489;23;20477;-75
2024/03/08 07:17:35;;;;;;;0.10;0.10;;;;;;;2.96;100.00;99531.06;6201716;23;20011;-75
2024/03/08 07:20:10;;;;;;;0.00;0.00;;;;;;;3.02;100.00;99523.88;6173920;23;20043;-75
2024/03/08 07:22:37;;;;;;;0.00;0.00;;;;;;;3.18;100.00;99516.91;6221458;23;20056;-74
2024/03/08 07:25:21;;;;;;;0.00;0.00;;;;;;;3.47;100.00;99531.28;6172677;23;20043;-76
2024/03/08 07:27:55;;;;;;;0.10;0.10;;;;;;;3.58;100.00;99500.69;6225417;23;20032;-73
2024/03/08 07:33:11;;;;;;;0.00;0.00;;;;;;;3.99;100.00;99501.38;6250537;23;20019;-74
2024/03/08 07:35:37;;;;;;;0.00;0.00;;;;;;;4.21;100.00;99525.00;6223136;23;20011;-77
2024/03/08 07:38:12;;;;;;;0.00;0.00;;;;;;;4.26;100.00;99511.53;6200884;23;20015;-79
2024/03/08 07:40:41;;;;;;;0.00;0.00;;;;;;;4.40;100.00;99516.66;6224769;23;20004;-77
2024/03/08 07:43:11;;;;;;;0.00;0.00;;;;;;;4.46;100.00;99494.00;6251293;23;20008;-76
2024/03/08 07:45:40;;;;;;;0.00;0.00;;;;;;;4.71;100.00;99504.34;6224253;23;20004;-76
2024/03/08 07:48:09;;;;;;;0.10;0.10;;;;;;;4.95;100.00;99513.09;6226342;23;20000;-76
2024/03/08 07:50:46;;;;;;;0.00;0.00;;;;;;;5.06;100.00;99506.69;6226668;23;20004;-78
2024/03/08 07:53:15;;;;;;;0.03;0.03;;;;;;;5.35;100.00;99501.09;6225837;23;20066;-76
2024/03/08 07:55:42;;;;;;;0.10;0.10;;;;;;;5.97;100.00;99507.16;6224758;23;20004;-76
2024/03/08 07:58:10;;;;;;;0.00;0.00;;;;;;;6.78;100.00;99492.50;6171274;23;20465;-74
2024/03/08 08:00:36;;;;;;;0.00;0.00;;;;;;;7.84;100.00;99484.16;6196901;23;20012;-77
2024/03/08 08:03:02;;;;;;;0.00;0.00;;;;;;;8.47;99.12;99477.63;6219094;23;20128;-75
2024/03/08 08:05:28;;;;;;;0.00;0.00;;;;;;;9.20;94.20;99487.22;6219282;23;20012;-74
2024/03/08 08:07:53;;;;;;;0.00;0.00;;;;;;;9.68;87.81;99489.41;6219610;23;20003;-74
2024/03/08 08:10:22;;;;;;;0.00;0.00;;;;;;;10.21;83.29;99482.47;6194585;23;20388;-75
2024/03/08 08:12:48;;;;;;;0.00;0.00;;;;;;;10.60;78.04;99485.13;6197018;23;20427;-77
2024/03/08 08:15:15;;;;;;;0.10;0.10;;;;;;;11.13;74.75;99464.28;6192491;23;20496;-74
2024/03/08 08:17:42;;;;;;;0.10;0.10;;;;;;;11.47;70.60;99453.13;6249422;23;20006;-73
2024/03/08 08:20:09;;;;;;;0.00;0.00;;;;;;;11.79;68.51;99448.84;6197138;23;20099;-76
2024/03/08 08:22:34;;;;;;;0.08;0.08;;;;;;;12.46;65.12;99455.16;6198951;23;20737;-72
2024/03/08 08:25:00;;;;;;;0.00;0.00;;;;;;;12.92;63.21;99457.00;6195556;23;20107;-75
2024/03/08 08:27:26;;;;;;;0.10;0.10;;;;;;;13.53;61.14;99459.59;6246945;23;20059;-75
2024/03/08 08:29:51;;;;;;;0.08;0.08;;;;;;;14.17;59.15;99444.91;6197515;23;20012;-75
2024/03/08 08:32:18;;;;;;;0.00;0.00;;;;;;;14.63;55.23;99446.44;6193079;23;20758;-76
2024/03/08 08:34:44;;;;;;;0.00;0.00;;;;;;;14.33;54.74;99443.38;6198630;23;19996;-75
2024/03/08 08:37:09;;;;;;;0.00;0.00;;;;;;;14.51;54.53;99437.97;6194311;23;20019;-76
2024/03/08 08:39:35;;;;;;;0.00;0.00;;;;;;;14.22;52.17;99420.00;6197858;23;20004;-76
2024/03/08 08:42:02;;;;;;;0.00;0.00;;;;;;;14.30;52.59;99430.25;6196743;23;20055;-74
2024/03/08 08:44:34;;;;;;;0.00;0.00;;;;;;;14.52;51.32;99434.91;6197529;23;20035;-75
2024/03/08 08:47:00;;;;;;;0.00;0.00;;;;;;;14.10;51.26;99424.16;6249220;23;20000;-74
2024/03/08 08:49:26;;;;;;;0.00;0.00;;;;;;;14.04;51.86;99425.41;6196404;23;20008;-74
2024/03/08 08:51:52;;;;;;;0.00;0.00;;;;;;;14.25;51.50;99419.38;6194835;23;20016;-73
2024/03/08 08:54:20;;;;;;;0.00;0.00;;;;;;;15.25;49.99;99417.19;6192752;23;20116;-74
2024/03/08 08:57:22;;;;;;;0.00;0.00;;;;;;;16.25;47.33;99400.75;6219307;23;20040;-76
2024/03/08 08:59:48;;;;;;;0.00;0.00;;;;;;;16.52;46.41;99413.34;6221819;23;20035;-77
2024/03/08 09:02:14;;;;;;;0.00;0.00;;;;;;;17.16;44.72;99404.09;6220809;23;20001;-77
2024/03/08 09:04:39;;;;;;;0.00;0.00;;;;;;;17.76;42.87;99388.16;6218417;23;20000;-76
2024/03/08 09:07:06;;;;;;;0.00;0.00;;;;;;;18.21;42.19;99396.84;6192783;23;20019;-77
2024/03/08 09:10:23;;;;;;;0.00;0.00;;;;;;;18.50;41.18;99398.66;6171384;23;20067;-73
2024/03/08 09:12:49;;;;;;;0.00;0.00;;;;;;;18.50;39.99;99368.22;6224416;23;20001;-78
2024/03/08 09:15:28;;;;;;;0.00;0.00;;;;;;;18.79;39.37;99353.31;6217678;23;20012;-70
2024/03/08 09:17:54;;;;;;;0.00;0.00;;;;;;;20.23;38.10;99387.19;6193215;23;20013;-75
2024/03/08 09:20:20;;;;;;;0.00;0.00;;;;;;;20.67;36.71;99384.34;6216974;23;20008;-76
2024/03/08 09:22:46;;;;;;;0.00;0.00;;;;;;;21.00;35.15;99383.16;6218488;23;20027;-74
2024/03/08 09:25:11;;;;;;;0.00;0.00;;;;;;;21.38;33.55;99366.91;6167850;23;20013;-76
2024/03/08 09:27:43;;;;;;;0.00;0.00;;;;;;;21.55;34.53;99380.41;6170081;23;20005;-75
2024/03/08 09:30:13;;;;;;;0.00;0.00;;;;;;;21.91;33.94;99366.41;6216973;23;20330;-76
2024/03/08 09:32:38;;;;;;;0.00;0.00;;;;;;;22.11;32.55;99354.03;6217887;23;20044;-76
2024/03/08 09:35:07;;;;;;;0.00;0.00;;;;;;;22.24;32.36;99351.06;6200027;23;20009;-75
2024/03/08 09:37:34;;;;;;;0.00;0.00;;;;;;;22.59;31.96;99359.25;6217084;23;20031;-76
2024/03/08 09:40:04;;;;;;;0.00;0.00;;;;;;;22.25;31.70;99335.97;6222458;23;20032;-73
2024/03/08 09:42:30;;;;;;;0.00;0.00;;;;;;;22.60;32.79;99360.84;6169856;23;20012;-76
2024/03/08 09:44:55;;;;;;;0.00;0.00;;;;;;;22.45;31.86;99357.03;6241970;23;20008;-74
2024/03/08 09:47:23;;;;;;;0.00;0.00;;;;;;;22.26;32.13;99326.47;6217247;23;20048;-74
2024/03/08 09:49:49;;;;;;;0.00;0.00;;;;;;;22.33;31.89;99343.31;6222392;23;19996;-75
2024/03/08 09:52:15;;;;;;;0.00;0.00;;;;;;;22.07;32.06;99341.25;6172752;22;20021;-75
2024/03/08 09:54:47;;;;;;;0.00;0.00;;;;;;;22.65;31.68;99348.63;6223706;23;20020;-74
2024/03/08 09:57:13;;;;;;;0.00;0.00;;;;;;;24.32;29.54;99344.72;6197982;22;20433;-76
2024/03/08 10:02:04;;;;;;;0.00;0.00;;;;;;;26.75;26.55;99328.53;6196924;23;20015;-76
2024/03/08 10:04:32;;;;;;;0.00;0.00;;;;;;;27.42;25.76;99336.38;6169175;23;20023;-71
2024/03/08 10:06:59;;;;;;;0.00;0.00;;;;;;;27.76;24.49;99321.75;6221778;23;20448;-74
2024/03/08 10:09:27;;;;;;;0.00;0.00;;;;;;;28.66;24.59;99327.56;6196316;23;20010;-74
2024/03/08 10:11:57;;;;;;;0.00;0.00;;;;;;;29.20;23.52;99303.69;6219469;23;19992;-74
2024/03/08 10:14:24;;;;;;;0.00;0.00;;;;;;;29.04;23.21;99312.72;6247971;23;20004;-74
2024/03/08 10:16:49;;;;;;;0.00;0.00;;;;;;;28.02;24.19;99307.19;6219566;23;20015;-74
2024/03/08 10:19:15;;;;;;;0.00;0.00;;;;;;;26.63;25.04;99304.50;6197860;23;20012;-73
2024/03/08 10:21:54;;;;;;;0.00;0.00;;;;;;;26.07;25.42;99289.28;6219266;23;20008;-73
2024/03/08 10:24:23;;;;;;;0.00;0.00;;;;;;;26.15;26.39;99287.28;6173576;23;20019;-73
2024/03/08 10:26:58;;;;;;;0.00;0.00;;;;;;;25.53;25.60;99283.56;6221017;23;20004;-73
2024/03/08 10:29:23;;;;;;;0.00;0.00;;;;;;;23.88;26.56;99279.28;6222260;23;20000;-73
2024/03/08 10:31:50;;;;;;;0.00;0.00;;;;;;;22.76;28.75;99288.25;6197580;23;20012;-73
2024/03/08 10:34:17;;;;;;;0.00;0.00;;;;;;;23.25;29.01;99278.19;6227131;23;19995;-73
2024/03/08 10:36:44;;;;;;;0.00;0.00;;;;;;;25.69;26.89;99269.22;6223857;23;20027;-71
2024/03/08 10:39:38;;;;;;;0.00;0.00;;;;;;;26.92;25.16;99273.59;6218009;23;20007;-72
2024/03/08 10:42:05;;;;;;;0.00;0.00;;;;;;;26.30;25.61;99264.47;6244135;23;20004;-73
2024/03/08 10:44:31;;;;;;;0.00;0.00;;;;;;;26.68;25.73;99266.88;6221978;23;19984;-72
2024/03/08 10:47:09;;;;;;;0.00;0.00;;;;;;;27.23;25.08;99256.25;6217658;23;20004;-76
2024/03/08 10:49:43;;;;;;;0.00;0.00;;;;;;;30.07;22.97;99258.28;6247708;23;20011;-76
2024/03/08 10:52:10;;;;;;;;;;;;;;;32.26;20.65;99260.69;6226012;22;20004;-75
2024/03/08 10:54:40;;;;;;;0.00;0.00;;;;;;;33.71;19.58;99255.41;6248917;23;19904;-73
2024/03/08 10:57:08;;;;;;;0.00;0.00;;;;;;;34.40;18.00;99242.63;6247919;23;20011;-73
2024/03/08 10:59:35;;;;;;;0.00;0.00;;;;;;;34.72;18.03;99241.50;6245894;23;20431;-73
2024/03/08 11:02:01;;;;;;;0.00;0.00;;;;;;;35.81;17.57;99230.50;6195380;23;20035;-73
2024/03/08 11:04:28;;;;;;;0.00;0.00;;;;;;;36.36;16.03;99231.09;6194858;23;20008;-72
2024/03/08 11:07:02;;;;;;;0.00;0.00;;;;;;;35.91;16.20;99234.16;6220777;23;20511;-72
2024/03/08 11:09:29;;;;;;;0.00;0.00;;;;;;;36.87;16.08;99213.38;6220198;23;20007;-73
2024/03/08 11:12:21;;;;;;;0.00;0.00;;;;;;;36.23;14.85;99222.69;6221222;23;20450;-72
2024/03/08 11:14:50;;;;;;;0.00;0.00;;;;;;;35.60;15.41;99217.13;6220570;23;20000;-73
2024/03/08 11:17:20;;;;;;;0.00;0.00;;;;;;;34.22;15.99;99197.84;6221342;23;20007;-73
2024/03/08 11:19:48;;;;;;;0.00;0.00;;;;;;;34.06;16.52;99201.63;6222207;23;20615;-73
2024/03/08 11:22:32;;;;;;;0.00;0.00;;;;;;;34.20;16.41;99200.34;6247534;23;20003;-73
2024/03/08 11:25:12;;;;;;;0.00;0.00;;;;;;;33.42;17.08;99185.47;6222409;23;20441;-72
2024/03/08 11:27:37;;;;;;;0.00;0.00;;;;;;;32.83;17.08;99190.47;6198246;23;20374;-73
2024/03/08 11:30:15;;;;;;;0.00;0.00;;;;;;;32.22;17.80;99194.94;6222649;23;20004;-73
2024/03/08 11:32:46;;;;;;;0.00;0.00;;;;;;;31.18;17.89;99179.22;6249131;23;20000;-73
2024/03/08 11:35:25;;;;;;;0.00;0.00;;;;;;;31.72;18.49;99180.81;6221069;23;20020;-72
2024/03/08 11:37:50;;;;;;;0.00;0.00;;;;;;;32.01;18.03;99188.59;6223580;23;20407;-73
2024/03/08 11:40:22;;;;;;;0.00;0.00;;;;;;;32.58;17.24;99171.31;6249059;23;20000;-74
2024/03/08 11:42:48;;;;;;;0.00;0.00;;;;;;;33.43;17.08;99170.06;6222171;23;20011;-72
2024/03/08 11:45:21;;;;;;;0.00;0.00;;;;;;;34.90;15.41;99175.56;6221371;23;20027;-72
2024/03/08 11:47:46;;;;;;;0.00;0.00;;;;;;;35.56;15.38;99166.13;6248415;23;20060;-74
2024/03/08 11:50:15;;;;;;;0.00;0.00;;;;;;;35.34;14.59;99168.22;6221749;23;20004;-72
2024/03/08 11:52:43;;;;;;;0.00;0.00;;;;;;;33.96;16.07;99174.44;6221582;23;19996;-74
2024/03/08 11:55:08;;;;;;;0.00;0.00;;;;;;;34.23;15.82;99171.88;6246044;23;19996;-73
2024/03/08 11:57:34;;;;;;;0.00;0.00;;;;;;;32.74;16.44;99168.47;6247128;23;20014;-75
2024/03/08 12:00:09;;;;;;;0.00;0.00;;;;;;;29.78;18.17;99140.38;6219873;23;20008;-73
2024/03/08 12:02:40;;;;;;;0.00;0.00;;;;;;;28.41;19.98;99158.31;6245006;23;20062;-72